Time;durP1;ratioP1;P1;durP2;ratioP2;P2;SDS_P1;SDS_P2;PMS_P1;PMS_P2;Temp;Humidity;BMP_temperature;BMP_pressure;BME280_temperature;BME280_humidity;BME280_pressure;Samples;Min_cycle;Max_cycle;Signal;HPM_P1;HPM_P2
2022/04/20 00:01:37;;;;;;;4.73;4.33;;;8.50;81.10;;;;;;4977941;28;20643;-96
2022/04/20 00:04:12;;;;;;;4.90;4.50;;;8.50;81.40;;;;;;4967620;28;20446;-96
2022/04/20 00:06:44;;;;;;;5.53;5.03;;;8.60;80.80;;;;;;4957458;28;20519;-96
2022/04/20 00:09:12;;;;;;;8.80;4.90;;;8.70;83.40;;;;;;4978692;28;20445;-96
2022/04/20 00:11:37;;;;;;;5.00;4.60;;;8.60;82.50;;;;;;4980276;28;20461;-96
2022/04/20 00:14:12;;;;;;;4.77;4.37;;;8.40;84.90;;;;;;4961133;28;20448;-96
2022/04/20 01:26:41;;;;;;;5.30;4.90;;;6.80;95.10;;;;;;4964014;26;20473;-96
2022/04/20 01:29:33;;;;;;;5.87;5.37;;;7.80;96.60;;;;;;4951812;28;20450;-96
2022/04/20 01:32:02;;;;;;;6.27;5.67;;;6.50;96.20;;;;;;4947454;28;20464;-96
2022/04/20 01:34:33;;;;;;;4.97;4.57;;;6.60;97.10;;;;;;4943664;28;20933;-96
2022/04/20 01:37:00;;;;;;;6.23;5.50;;;7.40;97.70;;;;;;4963006;28;20446;-96
2022/04/20 01:39:33;;;;;;;5.03;4.57;;;8.20;97.50;;;;;;4959469;28;20493;-96
2022/04/20 04:02:34;;;;;;;6.70;6.00;;;4.60;99.90;;;;;;4957841;28;20490;-96
2022/04/20 04:18:19;;;;;;;5.80;5.30;;;4.80;99.90;;;;;;4938682;28;20521;-96
2022/04/20 04:21:35;;;;;;;5.27;4.77;;;6.10;99.90;;;;;;4938084;28;20528;-96
2022/04/20 04:24:02;;;;;;;6.17;5.57;;;5.00;99.90;;;;;;4935009;28;20434;-94
2022/04/20 04:27:19;;;;;;;5.97;5.37;;;4.70;99.90;;;;;;4939961;28;20516;-94
2022/04/20 04:30:08;;;;;;;5.20;4.80;;;4.40;99.90;;;;;;4951464;28;20507;-95
2022/04/20 04:32:53;;;;;;;5.20;4.77;;;4.50;99.90;;;;;;4934340;28;20509;-91
2022/04/20 04:35:25;;;;;;;5.93;5.43;;;4.30;99.90;;;;;;4939749;28;20468;-95
2022/04/20 04:38:13;;;;;;;6.00;5.40;;;4.40;99.90;;;;;;4945474;28;20200;-94
2022/04/20 04:48:37;;;;;;;5.00;4.60;;;4.60;99.90;;;;;;5322278;23;20472;-92
2022/04/20 04:51:07;;;;;;;6.10;5.50;;;4.20;99.90;;;;;;4941643;28;20645;-93
2022/04/20 04:53:39;;;;;;;5.50;5.00;;;4.50;99.90;;;;;;4937546;28;20513;-90
2022/04/20 04:56:16;;;;;;;5.83;5.27;;;4.20;99.90;;;;;;4923266;28;20449;-90
2022/04/20 04:58:44;;;;;;;6.00;5.50;;;4.50;99.90;;;;;;4932098;28;20459;-90
2022/04/20 05:01:10;;;;;;;6.90;6.30;;;4.50;99.90;;;;;;4935043;28;20479;-90
2022/04/20 05:03:53;;;;;;;7.50;6.80;;;4.80;99.90;;;;;;4938238;28;20481;-95
2022/04/20 05:06:22;;;;;;;5.50;5.00;;;4.90;99.90;;;;;;4946719;28;20465;-86
2022/04/20 05:08:48;;;;;;;4.80;4.40;;;5.50;99.90;;;;;;4944493;28;20562;-92
2022/04/20 05:11:14;;;;;;;5.90;5.40;;;4.10;99.90;;;;;;4941408;28;20455;-92
2022/04/20 05:13:42;;;;;;;4.77;4.33;;;5.00;99.90;;;;;;4929612;28;21686;-92
2022/04/20 05:16:09;;;;;;;6.07;5.13;;;6.60;99.90;;;;;;4949543;28;20179;-94
2022/04/20 05:34:04;;;;;;;5.50;5.10;;;5.30;99.90;;;;;;4937923;28;21307;-92
2022/04/20 05:42:56;;;;;;;5.30;4.90;;;5.50;99.90;;;;;;4933815;28;20466;-95
2022/04/20 05:45:22;;;;;;;5.87;4.90;;;5.60;99.90;;;;;;4937282;28;22598;-93
2022/04/20 05:47:49;;;;;;;5.67;4.87;;;6.90;99.90;;;;;;4930396;28;20434;-92
2022/04/20 05:50:15;;;;;;;6.37;5.27;;;6.60;99.90;;;;;;4927420;28;20635;-91
2022/04/20 05:52:43;;;;;;;5.20;4.70;;;6.50;99.90;;;;;;4922946;28;20687;-96
2022/04/20 05:55:09;;;;;;;5.70;4.70;;;7.00;99.90;;;;;;4944295;28;20539;-92
2022/04/20 05:57:38;;;;;;;6.23;5.63;;;6.60;99.90;;;;;;4932613;28;20968;-96
2022/04/20 06:00:09;;;;;;;5.40;4.90;;;6.00;99.90;;;;;;4936533;28;20309;-91
2022/04/20 06:02:57;;;;;;;5.90;5.40;;;6.10;99.90;;;;;;5083442;27;20288;-92
2022/04/20 06:05:28;;;;;;;5.20;4.70;;;6.40;99.90;;;;;;5030960;28;20441;-90
2022/04/20 06:08:03;;;;;;;6.53;5.93;;;7.20;99.90;;;;;;5027252;28;20458;-91
2022/04/20 06:10:46;;;;;;;5.47;5.07;;;6.40;99.90;;;;;;5048985;28;20459;-92
2022/04/20 06:13:17;;;;;;;5.17;4.77;;;7.20;99.90;;;;;;5055135;28;20872;-92
2022/04/20 06:15:46;;;;;;;6.23;5.73;;;7.10;99.90;;;;;;5053451;28;20651;-93
2022/04/20 06:18:37;;;;;;;6.07;5.57;;;6.70;99.90;;;;;;5059519;28;20204;-93
2022/04/20 06:21:17;;;;;;;5.20;4.73;;;6.50;99.90;;;;;;5061631;28;20484;-93
2022/04/20 06:24:20;;;;;;;4.97;4.57;;;6.50;99.90;;;;;;5067927;28;20441;-93
2022/04/20 06:26:55;;;;;;;5.53;5.03;;;7.70;99.90;;;;;;5073023;28;20449;-93
2022/04/20 06:29:46;;;;;;;5.70;5.30;;;7.00;99.90;;;;;;5053544;28;20459;-93
2022/04/20 06:32:19;;;;;;;5.63;5.03;;;7.50;99.90;;;;;;5073784;28;21043;-92
2022/04/20 06:35:07;;;;;;;5.77;5.20;;;8.10;99.90;;;;;;5059069;28;20435;-93
2022/04/20 06:37:58;;;;;;;7.10;5.50;;;7.00;99.90;;;;;;5056941;28;20448;-94
2022/04/20 06:40:29;;;;;;;5.30;4.80;;;7.50;99.90;;;;;;5049594;28;20458;-93
2022/04/20 06:42:57;;;;;;;5.90;5.40;;;7.70;99.90;;;;;;5069658;28;20479;-94
2022/04/20 06:45:58;;;;;;;5.80;5.30;;;8.80;99.90;;;;;;5071665;28;20453;-93
2022/04/20 06:48:29;;;;;;;5.17;4.70;;;7.40;99.90;;;;;;5058202;28;20435;-93
2022/04/20 06:50:57;;;;;;;6.10;5.60;;;6.80;99.40;;;;;;5071204;28;20441;-92
2022/04/20 06:59:16;;;;;;;5.70;5.20;;;8.30;99.80;;;;;;5052467;28;20464;-92
2022/04/20 07:01:55;;;;;;;5.60;5.13;;;8.00;98.80;;;;;;5053878;28;20473;-92
2022/04/20 07:04:31;;;;;;;5.43;4.93;;;7.90;98.50;;;;;;5063008;28;20274;-92
2022/04/20 07:06:56;;;;;;;5.33;4.83;;;7.70;98.60;;;;;;5070380;28;20437;-93
2022/04/20 07:09:29;;;;;;;5.40;5.00;;;7.80;97.90;;;;;;5058713;28;20432;-93
2022/04/20 07:11:57;;;;;;;5.90;5.40;;;8.90;98.70;;;;;;5061886;28;20209;-92
2022/04/20 07:14:46;;;;;;;5.20;4.80;;;7.40;97.70;;;;;;5052259;28;21227;-92
2022/04/20 07:20:18;;;;;;;6.70;5.50;;;8.70;97.80;;;;;;5030680;28;20795;-91
2022/04/20 07:22:50;;;;;;;6.17;5.33;;;8.70;97.00;;;;;;5035974;28;20481;-91
2022/04/20 07:25:19;;;;;;;5.27;4.87;;;8.80;96.50;;;;;;5030492;28;20180;-92
2022/04/20 07:27:49;;;;;;;5.07;4.57;;;8.50;96.00;;;;;;5037910;28;20538;-94
2022/04/20 07:30:17;;;;;;;5.23;4.73;;;9.10;95.50;;;;;;5036989;28;20880;-94
2022/04/20 07:32:57;;;;;;;5.60;4.87;;;9.60;94.30;;;;;;5037521;28;21053;-91
2022/04/20 07:35:59;;;;;;;5.70;5.20;;;9.10;94.20;;;;;;5034227;28;20447;-92
2022/04/20 07:38:48;;;;;;;4.70;4.30;;;9.60;94.70;;;;;;5050945;28;20539;-92
2022/04/20 07:41:17;;;;;;;5.63;4.93;;;10.60;95.40;;;;;;5037312;28;20563;-92
2022/04/20 07:43:49;;;;;;;5.87;5.37;;;10.10;95.90;;;;;;5037411;28;20626;-92
2022/04/20 07:46:19;;;;;;;5.57;5.07;;;8.90;94.60;;;;;;5049023;28;20491;-92
2022/04/20 07:48:47;;;;;;;5.70;5.30;;;9.90;94.40;;;;;;5041386;28;20449;-90
2022/04/20 07:51:17;;;;;;;6.03;5.50;;;9.70;94.70;;;;;;5050408;28;20999;-90
2022/04/20 07:53:53;;;;;;;5.10;4.70;;;9.50;95.00;;;;;;5034520;28;20446;-91
2022/04/20 07:56:18;;;;;;;6.60;5.27;;;10.50;94.40;;;;;;5035881;28;20794;-91
2022/04/20 07:58:46;;;;;;;6.03;5.63;;;9.70;94.70;;;;;;5033886;28;20446;-92
2022/04/20 08:01:13;;;;;;;6.07;5.53;;;10.60;93.80;;;;;;5038384;28;20320;-91
2022/04/20 08:03:38;;;;;;;5.43;4.90;;;9.70;93.50;;;;;;5033509;28;20590;-90
2022/04/20 08:06:07;;;;;;;5.23;4.87;;;9.70;93.50;;;;;;5050642;28;21029;-91
2022/04/20 08:08:38;;;;;;;5.33;4.93;;;10.90;94.10;;;;;;5049155;28;20283;-89
2022/04/20 08:11:06;;;;;;;6.80;6.03;;;9.70;93.70;;;;;;5035923;28;20475;-91
2022/04/20 08:16:27;;;;;;;5.93;5.10;;;11.10;93.20;;;;;;5039075;28;20503;-90
2022/04/20 08:19:00;;;;;;;5.37;4.87;;;9.90;91.80;;;;;;5041937;28;20441;-90
2022/04/20 08:21:26;;;;;;;5.70;5.20;;;10.20;92.20;;;;;;5037406;28;20477;-90
2022/04/20 08:23:58;;;;;;;6.07;5.00;;;10.40;91.40;;;;;;5052025;28;20534;-89
2022/04/20 08:26:26;;;;;;;5.00;4.60;;;11.60;92.50;;;;;;5035433;28;20454;-90
2022/04/20 08:29:09;;;;;;;;;;;;;;;;;;;;;
2022/04/20 08:31:37;;;;;;;6.03;5.53;;;12.20;92.70;;;;;;5043696;28;20526;-91
2022/04/20 08:34:07;;;;;;;5.70;5.20;;;10.40;91.40;;;;;;5071689;28;21226;-91
2022/04/20 08:36:40;;;;;;;5.70;5.20;;;11.20;92.30;;;;;;5061109;28;20445;-91
2022/04/20 08:39:08;;;;;;;4.77;4.37;;;11.90;90.70;;;;;;5042010;28;20483;-90
2022/04/20 08:41:48;;;;;;;5.43;4.97;;;11.80;90.80;;;;;;5060347;28;20466;-91
2022/04/20 08:44:31;;;;;;;;;;;;;;;;;;;;;
2022/04/20 08:47:12;;;;;;;5.20;4.80;;;11.00;89.70;;;;;;5031647;28;20446;-91
2022/04/20 08:49:49;;;;;;;5.27;4.87;;;11.10;90.60;;;;;;5072062;28;20446;-90
2022/04/20 08:52:39;;;;;;;5.23;4.73;;;10.60;90.80;;;;;;5032233;28;20573;-91
2022/04/20 08:55:09;;;;;;;5.17;4.77;;;13.10;90.20;;;;;;5047875;28;20813;-90
2022/04/20 08:57:37;;;;;;;5.73;5.23;;;11.40;87.70;;;;;;5027363;28;20799;-91
2022/04/20 09:00:09;;;;;;;5.20;4.80;;;11.30;89.70;;;;;;5051557;28;20430;-92
2022/04/20 09:02:38;;;;;;;5.10;4.70;;;11.60;90.30;;;;;;5051530;28;21735;-92
2022/04/20 09:05:07;;;;;;;5.03;4.63;;;12.20;88.20;;;;;;5041686;28;20434;-91
2022/04/20 09:07:37;;;;;;;5.20;4.80;;;11.60;85.20;;;;;;5051994;28;20464;-90
2022/04/20 09:10:16;;;;;;;4.70;4.30;;;12.60;87.80;;;;;;5048393;28;20543;-90
2022/04/20 09:12:43;;;;;;;5.63;5.13;;;11.60;88.00;;;;;;5033473;28;20446;-92
2022/04/20 09:15:10;;;;;;;6.03;5.53;;;11.90;85.90;;;;;;5034723;28;20439;-91
2022/04/20 09:17:45;;;;;;;5.53;4.77;;;11.70;84.10;;;;;;5035192;28;20463;-91
2022/04/20 09:20:18;;;;;;;5.80;5.30;;;12.00;85.50;;;;;;5040607;28;20430;-91
2022/04/20 09:23:00;;;;;;;5.80;5.30;;;11.40;85.00;;;;;;5048946;28;20994;-93
2022/04/20 09:25:37;;;;;;;5.00;4.60;;;12.60;87.40;;;;;;5031929;28;20460;-92
2022/04/20 09:28:10;;;;;;;5.17;4.77;;;11.90;82.90;;;;;;5036353;28;21376;-91
2022/04/20 09:30:38;;;;;;;5.07;4.67;;;11.80;84.40;;;;;;5033625;28;20445;-91
2022/04/20 09:33:07;;;;;;;4.97;4.53;;;12.20;84.20;;;;;;5036483;28;20454;-91
2022/04/20 09:35:46;;;;;;;5.07;4.67;;;12.10;82.70;;;;;;5031618;28;20504;-91
2022/04/20 09:38:16;;;;;;;4.30;3.90;;;12.20;80.90;;;;;;5051080;28;20438;-91
2022/04/20 09:40:42;;;;;;;6.47;4.70;;;12.50;82.60;;;;;;5033946;28;20473;-90
2022/04/20 09:43:19;;;;;;;6.03;5.40;;;12.20;79.00;;;;;;5036213;28;21001;-89
2022/04/20 09:46:00;;;;;;;5.40;4.90;;;12.80;83.60;;;;;;5064867;28;20473;-88
2022/04/20 09:51:20;;;;;;;4.50;4.13;;;14.30;83.00;;;;;;5030647;28;20505;-91
2022/04/20 09:53:49;;;;;;;4.67;4.27;;;12.70;75.90;;;;;;5067879;28;20524;-90
2022/04/20 09:56:35;;;;;;;;;;;;;;;;;;;;;
2022/04/20 10:02:16;;;;;;;4.60;4.30;;;13.50;80.10;;;;;;5015530;28;20705;-90
2022/04/20 10:04:43;;;;;;;4.50;4.00;;;13.10;76.20;;;;;;5022287;28;20441;-90
2022/04/20 10:07:08;;;;;;;4.40;4.00;;;13.00;72.30;;;;;;5027454;28;20450;-91
2022/04/20 10:09:36;;;;;;;4.07;3.67;;;13.00;68.90;;;;;;5026763;28;20449;-90
2022/04/20 10:12:06;;;;;;;4.03;3.73;;;13.20;70.20;;;;;;5039271;28;20184;-91
2022/04/20 10:17:23;;;;;;;4.53;4.13;;;13.40;69.60;;;;;;5025758;28;20583;-91
2022/04/20 10:19:57;;;;;;;4.20;3.90;;;13.30;71.40;;;;;;5024305;28;20484;-89
2022/04/20 10:22:24;;;;;;;3.80;3.50;;;13.30;66.10;;;;;;5028210;28;20579;-92
2022/04/20 10:24:52;;;;;;;4.20;3.80;;;13.80;64.20;;;;;;5041938;28;21074;-91
2022/04/20 10:27:50;;;;;;;3.63;3.33;;;14.00;64.70;;;;;;5068511;28;20481;-93
2022/04/20 10:30:21;;;;;;;6.13;4.03;;;13.90;65.10;;;;;;4994852;28;20437;-92
2022/04/20 10:33:13;;;;;;;3.70;3.40;;;13.90;62.60;;;;;;5031609;28;21031;-93
2022/04/20 10:36:17;;;;;;;3.60;3.30;;;13.90;64.10;;;;;;5065921;28;20956;-94
2022/04/20 10:39:27;;;;;;;4.00;3.60;;;14.50;66.80;;;;;;5036263;28;20574;-91
2022/04/20 10:42:27;;;;;;;4.70;4.30;;;14.90;60.90;;;;;;5048829;28;20468;-93
2022/04/20 10:44:58;;;;;;;4.33;4.03;;;14.90;68.20;;;;;;5007536;28;20548;-91
2022/04/20 10:47:45;;;;;;;4.07;3.67;;;14.80;64.30;;;;;;5044079;28;20447;-93
2022/04/20 10:50:19;;;;;;;4.77;4.37;;;15.60;68.70;;;;;;5045414;28;20541;-91
2022/04/20 10:52:57;;;;;;;4.17;3.80;;;15.30;65.90;;;;;;5052449;28;20438;-92
2022/04/20 10:55:41;;;;;;;3.93;3.63;;;15.30;62.80;;;;;;5029104;28;20444;-92
2022/04/20 10:58:21;;;;;;;3.67;3.37;;;15.20;59.50;;;;;;5032041;28;20450;-92
2022/04/20 11:01:11;;;;;;;4.50;4.10;;;15.20;59.50;;;;;;5027667;28;20523;-93
2022/04/20 11:03:58;;;;;;;4.03;3.73;;;15.00;60.30;;;;;;5019041;28;20533;-92
2022/04/20 11:07:03;;;;;;;4.70;4.30;;;15.10;65.90;;;;;;5038945;28;20441;-94
2022/04/20 11:10:19;;;;;;;6.30;4.23;;;15.00;62.60;;;;;;4985643;28;20438;-92
2022/04/20 11:18:39;;;;;;;4.43;4.13;;;15.80;62.00;;;;;;5024708;28;20480;-91
2022/04/20 11:21:10;;;;;;;5.03;4.57;;;16.30;64.00;;;;;;5045610;28;21519;-91
2022/04/20 11:23:55;;;;;;;4.40;4.00;;;15.90;62.20;;;;;;5030976;28;20454;-90
2022/04/20 11:26:37;;;;;;;4.73;4.33;;;16.10;65.20;;;;;;5029327;28;20438;-92
2022/04/20 11:29:15;;;;;;;5.10;4.70;;;16.50;62.50;;;;;;5021966;28;20441;-92
2022/04/20 11:31:47;;;;;;;4.77;4.13;;;16.30;64.60;;;;;;5008033;28;20512;-94
2022/04/20 11:34:16;;;;;;;6.17;4.83;;;16.20;62.10;;;;;;5013656;28;20457;-94
2022/04/20 11:36:44;;;;;;;4.73;4.33;;;15.70;60.00;;;;;;5058111;28;20688;-94
2022/04/20 11:39:11;;;;;;;4.53;4.17;;;15.90;66.60;;;;;;5054203;28;20541;-92
2022/04/20 11:41:47;;;;;;;5.10;4.70;;;16.20;62.20;;;;;;5023361;28;20441;-94
2022/04/20 11:44:27;;;;;;;5.30;4.90;;;16.40;67.00;;;;;;5023888;28;21696;-94
2022/04/20 11:47:01;;;;;;;4.40;4.10;;;16.60;54.00;;;;;;5036850;28;20955;-93
2022/04/20 11:49:41;;;;;;;4.20;3.90;;;16.50;57.20;;;;;;5023862;28;20454;-90
2022/04/20 11:52:13;;;;;;;4.93;4.63;;;16.30;54.50;;;;;;5015812;28;20506;-95
2022/04/20 11:54:39;;;;;;;4.00;3.33;;;16.10;57.40;;;;;;5024978;28;20438;-93
2022/04/20 11:57:07;;;;;;;4.63;4.10;;;16.50;51.80;;;;;;5006667;28;20442;-88
2022/04/20 11:59:33;;;;;;;4.73;4.23;;;16.80;58.50;;;;;;5035560;28;21632;-88
2022/04/20 12:01:59;;;;;;;5.03;4.63;;;16.70;60.80;;;;;;5002819;28;20982;-90
2022/04/20 12:04:26;;;;;;;6.40;4.93;;;16.60;58.60;;;;;;5025070;28;20772;-90
2022/04/20 12:06:57;;;;;;;5.53;5.00;;;16.90;58.60;;;;;;5018728;28;20454;-87
2022/04/20 12:09:25;;;;;;;5.17;4.67;;;16.90;62.60;;;;;;5056214;28;20953;-89
2022/04/20 12:11:55;;;;;;;6.60;4.40;;;16.90;57.30;;;;;;5021009;28;22130;-88
2022/04/20 12:14:23;;;;;;;4.93;4.53;;;17.30;58.80;;;;;;5023802;28;20659;-90
2022/04/20 12:16:50;;;;;;;9.47;7.50;;;17.50;63.60;;;;;;5033678;28;20441;-90
2022/04/20 12:19:19;;;;;;;9.10;6.40;;;17.30;59.30;;;;;;5020445;28;21569;-91
2022/04/20 12:21:49;;;;;;;4.90;4.50;;;17.20;58.30;;;;;;5042576;28;21135;-90
2022/04/20 12:24:20;;;;;;;6.47;5.80;;;17.40;55.60;;;;;;5039527;28;20442;-90
2022/04/20 12:26:47;;;;;;;19.00;9.27;;;17.20;56.20;;;;;;5028773;28;20492;-91
2022/04/20 12:29:14;;;;;;;6.50;5.27;;;17.80;58.60;;;;;;5047665;28;20422;-89
2022/04/20 12:31:44;;;;;;;3.80;3.50;;;17.30;59.30;;;;;;5024228;28;20470;-89
2022/04/20 12:34:15;;;;;;;10.23;5.93;;;18.00;53.90;;;;;;5037658;28;20869;-89
2022/04/20 12:37:08;;;;;;;5.53;5.03;;;17.70;56.20;;;;;;5021589;28;20448;-89
2022/04/20 12:39:40;;;;;;;5.30;4.87;;;17.40;52.80;;;;;;5023545;28;20485;-89
2022/04/20 12:42:11;;;;;;;5.70;5.20;;;17.10;49.00;;;;;;5038269;28;20865;-89
2022/04/20 12:44:46;;;;;;;5.60;5.03;;;17.10;54.10;;;;;;5020929;28;20457;-92
2022/04/20 12:47:12;;;;;;;5.93;5.27;;;17.00;53.40;;;;;;5020629;28;21723;-93
2022/04/20 12:49:48;;;;;;;4.70;4.30;;;16.90;55.00;;;;;;5020851;28;21054;-81
2022/04/20 12:52:15;;;;;;;4.83;4.40;;;17.40;52.00;;;;;;5022441;28;20321;-82
2022/04/20 12:54:56;;;;;;;5.63;5.20;;;18.00;55.10;;;;;;5028011;28;20453;-82
2022/04/20 13:03:07;;;;;;;9.10;5.30;;;17.30;56.50;;;;;;5012202;28;21884;-82
2022/04/20 13:05:38;;;;;;;5.73;5.17;;;17.70;53.90;;;;;;5027701;28;20528;-83
2022/04/20 13:08:13;;;;;;;4.90;4.50;;;18.50;55.40;;;;;;5046323;28;20557;-83
2022/04/20 13:10:52;;;;;;;4.90;4.50;;;18.80;54.20;;;;;;5019134;28;20541;-84
2022/04/20 13:13:27;;;;;;;4.13;3.83;;;18.60;54.60;;;;;;5009222;28;20442;-84
2022/04/20 13:16:01;;;;;;;5.60;4.73;;;18.20;50.50;;;;;;5016110;28;20962;-83
2022/04/20 13:18:27;;;;;;;5.97;4.73;;;18.30;53.70;;;;;;5024314;28;21964;-82
2022/04/20 13:20:53;;;;;;;4.37;4.07;;;18.50;50.10;;;;;;5006782;28;20453;-82
2022/04/20 13:23:18;;;;;;;3.83;3.53;;;19.10;50.90;;;;;;4996706;28;20895;-82
2022/04/20 13:28:28;;;;;;;6.00;3.80;;;19.40;50.60;;;;;;5017857;28;20210;-82
2022/04/20 13:30:55;;;;;;;3.97;3.60;;;19.50;52.80;;;;;;5017291;28;20442;-84
2022/04/20 13:33:21;;;;;;;5.23;4.73;;;19.00;51.90;;;;;;5016195;28;20180;-82
2022/04/20 13:35:49;;;;;;;4.53;4.10;;;18.60;50.80;;;;;;5005539;28;20495;-82
2022/04/20 13:38:15;;;;;;;4.77;4.37;;;19.00;52.70;;;;;;5009608;28;20237;-82
2022/04/20 13:40:41;;;;;;;3.80;3.50;;;19.30;51.00;;;;;;4997739;28;21019;-83
2022/04/20 13:43:08;;;;;;;4.27;3.87;;;19.60;46.90;;;;;;5000692;28;20192;-83
2022/04/20 13:45:34;;;;;;;4.57;3.70;;;19.70;49.60;;;;;;5017706;28;20499;-82
2022/04/20 13:48:00;;;;;;;4.50;4.10;;;19.30;50.30;;;;;;5018460;28;21739;-82
2022/04/20 13:50:26;;;;;;;4.27;3.97;;;19.30;51.90;;;;;;5004899;28;20446;-82
2022/04/20 13:52:53;;;;;;;4.40;4.10;;;18.90;49.70;;;;;;5015777;28;20222;-82
2022/04/20 13:55:19;;;;;;;3.90;3.70;;;18.90;52.60;;;;;;5015555;28;20250;-81
2022/04/20 13:57:46;;;;;;;4.13;3.83;;;19.20;47.90;;;;;;5009636;28;21028;-84
2022/04/20 14:00:13;;;;;;;3.73;3.43;;;19.10;48.00;;;;;;5015975;28;20193;-82
2022/04/20 14:02:38;;;;;;;10.03;4.00;;;19.10;48.90;;;;;;5027707;28;20454;-83
2022/04/20 14:05:05;;;;;;;6.60;4.50;;;20.60;51.30;;;;;;5013198;28;21031;-82
2022/04/20 14:07:31;;;;;;;3.40;3.10;;;20.90;46.60;;;;;;5002572;28;20183;-82
2022/04/20 14:09:57;;;;;;;4.13;3.63;;;22.00;45.40;;;;;;5016271;28;20442;-83
2022/04/20 14:12:24;;;;;;;4.87;3.80;;;24.40;43.70;;;;;;5052038;28;20492;-83
2022/04/20 14:14:51;;;;;;;3.47;3.27;;;24.80;44.50;;;;;;5019068;28;20244;-83
2022/04/20 14:17:19;;;;;;;4.17;3.10;;;25.20;42.50;;;;;;5011363;28;20465;-83
2022/04/20 14:19:47;;;;;;;5.47;3.83;;;25.20;40.80;;;;;;5011732;28;20964;-82
2022/04/20 14:22:14;;;;;;;3.83;3.53;;;25.40;40.40;;;;;;5006250;28;21163;-82
2022/04/20 14:24:40;;;;;;;4.20;3.73;;;25.80;39.10;;;;;;5019530;28;20456;-82
2022/04/20 14:32:34;;;;;;;5.50;3.80;;;27.40;34.20;;;;;;5014880;28;20575;-83
2022/04/20 14:35:00;;;;;;;4.80;4.40;;;29.50;32.50;;;;;;5018272;28;20546;-82
2022/04/20 14:37:26;;;;;;;3.90;3.60;;;27.90;30.90;;;;;;5027985;28;20195;-83
2022/04/20 14:39:51;;;;;;;4.00;3.70;;;26.90;32.50;;;;;;5027884;28;20552;-84
2022/04/20 14:42:21;;;;;;;4.27;3.97;;;26.90;33.00;;;;;;5033262;28;20851;-83
2022/04/20 14:44:47;;;;;;;4.30;4.07;;;26.60;35.60;;;;;;5060907;28;20240;-83
2022/04/20 14:47:12;;;;;;;4.47;4.07;;;23.80;33.90;;;;;;5017356;28;21202;-82
2022/04/20 14:49:40;;;;;;;4.30;3.93;;;23.60;36.20;;;;;;5018548;28;20472;-83
2022/04/20 14:52:08;;;;;;;3.60;3.07;;;22.50;36.80;;;;;;5041245;28;20253;-83
2022/04/20 14:54:37;;;;;;;4.43;3.77;;;22.30;40.00;;;;;;5008118;28;20438;-82
2022/04/20 14:57:04;;;;;;;4.83;4.43;;;22.80;39.60;;;;;;5042180;28;20442;-82
2022/04/20 14:59:42;;;;;;;8.40;7.70;;;21.90;39.00;;;;;;5043233;28;21666;-91
2022/04/20 15:02:20;;;;;;;5.50;5.10;;;21.70;39.10;;;;;;5054038;28;20466;-89
2022/04/20 15:04:46;;;;;;;4.80;4.40;;;21.10;38.50;;;;;;5018750;28;20673;-89
2022/04/20 15:07:12;;;;;;;4.30;4.00;;;21.40;38.10;;;;;;5012457;28;20924;-87
2022/04/20 15:09:37;;;;;;;4.57;4.17;;;21.10;39.10;;;;;;4999382;28;20575;-87
2022/04/20 15:12:08;;;;;;;4.83;4.43;;;19.50;39.70;;;;;;5012208;28;20212;-88
2022/04/20 15:14:34;;;;;;;3.97;3.57;;;19.20;41.70;;;;;;5013065;28;20195;-87
2022/04/20 15:16:59;;;;;;;4.60;4.20;;;19.10;42.10;;;;;;5012531;28;20449;-87
2022/04/20 15:19:25;;;;;;;6.10;4.40;;;19.10;41.20;;;;;;5021104;28;20195;-86
2022/04/20 15:21:51;;;;;;;4.60;4.20;;;19.70;41.90;;;;;;5012833;28;20293;-86
2022/04/20 15:24:21;;;;;;;4.00;3.70;;;19.70;41.30;;;;;;4997741;28;20204;-88
2022/04/20 15:26:46;;;;;;;4.30;3.87;;;19.70;41.30;;;;;;5017700;28;20438;-88
2022/04/20 15:29:13;;;;;;;3.70;3.40;;;20.10;42.10;;;;;;5002247;28;20724;-88
2022/04/20 15:31:38;;;;;;;4.50;4.17;;;21.40;39.00;;;;;;5032157;28;20246;-88
2022/04/20 15:34:04;;;;;;;3.80;3.50;;;21.30;38.50;;;;;;5032840;28;20991;-88
2022/04/20 15:36:30;;;;;;;6.10;3.50;;;22.70;38.90;;;;;;5002128;28;20184;-88
2022/04/20 15:38:57;;;;;;;4.03;3.73;;;23.70;38.20;;;;;;5005084;28;20206;-89
2022/04/20 15:41:23;;;;;;;6.40;3.90;;;24.60;35.60;;;;;;5008308;28;20527;-90
2022/04/20 15:43:48;;;;;;;5.73;3.77;;;24.60;35.30;;;;;;5006680;28;22323;-88
2022/04/20 15:46:14;;;;;;;3.83;3.63;;;24.90;34.50;;;;;;5020149;28;20478;-89
2022/04/20 15:48:40;;;;;;;3.67;3.47;;;25.60;33.90;;;;;;5006318;28;20517;-90
2022/04/20 15:51:06;;;;;;;5.00;4.60;;;26.90;33.90;;;;;;5004631;28;20219;-89
2022/04/20 15:53:33;;;;;;;4.27;3.97;;;27.30;35.30;;;;;;4998346;28;20667;-89
2022/04/20 16:01:28;;;;;;;4.13;3.73;;;26.90;33.40;;;;;;5011515;28;20511;-94
2022/04/20 16:04:06;;;;;;;4.90;4.50;;;26.50;33.70;;;;;;5003265;28;20454;-96
2022/04/20 16:06:46;;;;;;;4.60;4.30;;;26.10;32.20;;;;;;5010649;28;20231;-88
2022/04/20 16:09:18;;;;;;;4.33;4.03;;;25.70;34.00;;;;;;4998716;28;20435;-90
2022/04/20 16:11:43;;;;;;;5.23;4.93;;;26.30;33.70;;;;;;5037085;28;20207;-90
2022/04/20 16:14:25;;;;;;;5.17;4.80;;;28.50;30.90;;;;;;5020747;28;21144;-88
2022/04/20 16:17:10;;;;;;;3.87;3.67;;;29.70;30.00;;;;;;5018982;28;20219;-88
2022/04/20 16:19:35;;;;;;;4.23;3.93;;;26.80;31.60;;;;;;5021020;28;20442;-88
2022/04/20 16:22:01;;;;;;;5.10;4.37;;;26.90;31.50;;;;;;5021596;28;20295;-88
2022/04/20 16:24:28;;;;;;;3.90;3.63;;;27.30;31.60;;;;;;5016958;28;20198;-92
2022/04/20 16:26:55;;;;;;;4.40;4.00;;;29.00;30.70;;;;;;5022747;28;20548;-90
2022/04/20 16:29:23;;;;;;;3.77;3.47;;;28.70;29.40;;;;;;5019959;28;20981;-90
2022/04/20 16:31:49;;;;;;;3.60;3.30;;;26.20;31.10;;;;;;5019763;28;20493;-89
2022/04/20 16:34:14;;;;;;;7.07;6.50;;;27.10;32.20;;;;;;5025598;28;20430;-90
2022/04/20 16:36:41;;;;;;;7.10;5.23;;;27.70;33.10;;;;;;5051398;28;20187;-91
2022/04/20 16:39:07;;;;;;;4.00;3.70;;;25.50;31.90;;;;;;5038362;28;20184;-90
2022/04/20 16:41:37;;;;;;;4.20;3.90;;;24.80;32.50;;;;;;5019917;28;20815;-91
2022/04/20 16:44:03;;;;;;;6.73;4.30;;;25.00;33.00;;;;;;5025704;28;20845;-91
2022/04/20 16:46:28;;;;;;;4.33;4.03;;;25.30;33.30;;;;;;5023308;28;20438;-90
2022/04/20 16:48:54;;;;;;;4.17;3.83;;;25.80;32.40;;;;;;5020658;28;21628;-91
2022/04/20 16:51:20;;;;;;;3.87;3.60;;;25.80;31.40;;;;;;5017627;28;20842;-91
2022/04/20 16:53:46;;;;;;;4.40;4.00;;;26.50;32.70;;;;;;5051952;28;20203;-90
2022/04/20 16:56:12;;;;;;;3.93;3.63;;;26.00;32.50;;;;;;5020163;28;20561;-90
2022/04/20 16:58:37;;;;;;;4.20;3.87;;;24.90;32.60;;;;;;5012274;28;20446;-89
2022/04/20 17:01:03;;;;;;;4.60;3.90;;;24.20;33.30;;;;;;5015484;28;20918;-89
2022/04/20 17:03:45;;;;;;;4.13;3.80;;;23.80;34.10;;;;;;5037872;28;20253;-91
2022/04/20 17:06:11;;;;;;;4.37;4.07;;;23.80;33.40;;;;;;5021111;28;20294;-91
2022/04/20 17:08:36;;;;;;;4.37;3.97;;;24.00;33.50;;;;;;5012729;28;20508;-89
2022/04/20 17:11:02;;;;;;;4.60;3.90;;;21.90;34.70;;;;;;5025610;28;20183;-90
2022/04/20 17:13:31;;;;;;;4.00;3.70;;;21.50;35.40;;;;;;5007115;28;20755;-90
2022/04/20 17:15:59;;;;;;;4.17;3.83;;;22.20;36.50;;;;;;5019728;28;20341;-89
2022/04/20 17:18:34;;;;;;;4.40;4.00;;;22.20;35.70;;;;;;5025438;28;21174;-90
2022/04/20 17:26:34;;;;;;;4.43;4.10;;;17.50;40.70;;;;;;5020719;28;20984;-90
2022/04/20 17:29:01;;;;;;;5.93;4.30;;;15.80;42.90;;;;;;5017416;28;20447;-90
2022/04/20 17:31:28;;;;;;;5.93;4.07;;;15.50;44.90;;;;;;5035768;28;20483;-90
2022/04/20 17:33:53;;;;;;;3.80;3.50;;;15.20;45.00;;;;;;5022832;28;20430;-90
2022/04/20 17:36:39;;;;;;;4.10;3.80;;;14.80;45.60;;;;;;5023830;28;20446;-90
2022/04/20 17:39:06;;;;;;;3.93;3.07;;;14.60;45.40;;;;;;5008313;28;20255;-90
2022/04/20 17:41:33;;;;;;;4.20;3.90;;;14.40;46.30;;;;;;5033485;28;20545;-91
2022/04/20 17:43:58;;;;;;;3.77;3.37;;;14.30;46.50;;;;;;5022967;28;20872;-92
2022/04/20 17:46:24;;;;;;;5.10;3.83;;;14.10;47.10;;;;;;5017433;28;21086;-91
2022/04/20 17:48:51;;;;;;;4.13;3.73;;;13.90;47.30;;;;;;5023206;28;20511;-89
2022/04/20 17:51:16;;;;;;;4.00;3.50;;;14.00;47.00;;;;;;5020977;28;21088;-90
2022/04/20 17:53:45;;;;;;;4.23;3.40;;;13.80;46.80;;;;;;5019045;28;20214;-89
2022/04/20 17:56:10;;;;;;;4.60;3.40;;;13.60;49.80;;;;;;5041160;28;20201;-91
2022/04/20 17:59:05;;;;;;;3.57;3.27;;;13.60;49.30;;;;;;5031713;28;20550;-90
2022/04/20 18:01:43;;;;;;;4.30;3.80;;;13.60;48.30;;;;;;5032561;28;20510;-90
2022/04/20 18:04:09;;;;;;;3.73;3.40;;;13.60;48.00;;;;;;5060851;28;20470;-90
2022/04/20 18:06:39;;;;;;;5.27;3.83;;;13.60;47.50;;;;;;5030018;28;20488;-89
2022/04/20 18:09:07;;;;;;;3.67;3.37;;;13.40;47.60;;;;;;5012426;28;20732;-89
2022/04/20 18:11:33;;;;;;;5.33;4.07;;;13.20;48.30;;;;;;5018908;28;20529;-90
2022/04/20 18:13:59;;;;;;;4.50;4.10;;;13.10;48.20;;;;;;5036512;28;20443;-90
2022/04/20 18:16:27;;;;;;;4.23;3.73;;;13.00;48.40;;;;;;5016903;28;20875;-91
2022/04/20 18:18:53;;;;;;;7.60;3.77;;;12.90;48.60;;;;;;5034355;28;20192;-90
2022/04/20 18:21:19;;;;;;;3.77;3.47;;;13.20;49.50;;;;;;5013390;28;20918;-89
2022/04/20 18:23:44;;;;;;;4.17;3.53;;;12.60;48.80;;;;;;5016453;28;20191;-91